Weather at Armacao de Pera Airfield ULM [CLOSED]

Public forecast

Using degrees Celsius for public forecast. Weather courtesy of forecast.io.

Closest aviation weather report (METAR) to Armacao de Pera Airfield ULM

Closest report is Faro Airport, 19.0 nm (35.2 km) ESE.

2024/06/13 21:00 (retrieved 25 minutes ago)

LPFR 132100Z 30009KT CAVOK 24/11 Q1017

Closest aviation forecast (TAF) to Armacao de Pera Airfield ULM

Closest forecast is Faro Airport, 19.0 nm (35.2 km) ESE.

2024/06/13 18:18 (retrieved 3 hours ago)

TAF LPFR 131700Z 1318/1418 25010KT CAVOK BECMG 1318/1320 31008KT BECMG 1400/1402 VRB02KT BECMG 1408/1410 23008KT BECMG 1412/1414 25015KT